Terminal Aerodrome Forecast
Issued by NWS Lake Charles, LA

Home | Current Version | Previous Version | Text Only | Print | Product List | Glossary On
Versions: 1 2 3 4 5 6 7 8 9 10 11 12 13 14 15 16
451
FTUS44 KLCH 261138
TAFARA
TAF
KARA 261138Z 2612/2712 VRB03KT P6SM SCT250
     FM261800 01005KT P6SM SCT030 BKN050
     FM270100 01007KT P6SM VCSH FEW015 BKN040=

USA.gov is the U.S. government's official web portal to all federal, state and local government web resources and services.